Time;durP1;ratioP1;P1;durP2;ratioP2;P2;SDS_P1;SDS_P2;PMS_P1;PMS_P2;Temp;Humidity;BMP_temperature;BMP_pressure;BME280_temperature;BME280_humidity;BME280_pressure;Samples;Min_cycle;Max_cycle;Signal;HPM_P1;HPM_P2
2022/06/03 00:02:29;;;;;;;8.73;7.83;;;;;;;;;;5038206;28;20209;-78
2022/06/03 00:05:15;;;;;;;8.60;7.70;;;;;;;;;;5039349;28;20220;-75
2022/06/03 00:07:54;;;;;;;8.10;7.40;;;;;;;;;;5023060;28;20329;-76
2022/06/03 00:10:49;;;;;;;8.73;7.23;;;;;;;;;;5026955;28;20253;-78
2022/06/03 00:13:20;;;;;;;8.87;7.93;;;;;;;;;;5028484;28;20198;-79
2022/06/03 00:15:50;;;;;;;8.03;7.30;;;;;;;;;;5029554;28;20227;-78
2022/06/03 00:18:17;;;;;;;7.57;6.87;;;;;;;;;;5036218;28;20238;-77
2022/06/03 00:20:55;;;;;;;7.77;6.97;;;;;;;;;;5038314;28;20225;-77
2022/06/03 00:23:25;;;;;;;9.83;8.23;;;;;;;;;;5041366;28;20226;-79
2022/06/03 00:26:11;;;;;;;8.50;7.70;;;;;;;;;;5045077;28;20305;-77
2022/06/03 00:28:42;;;;;;;9.83;7.57;;;;;;;;;;5042860;28;20233;-79
2022/06/03 00:31:12;;;;;;;8.43;7.63;;;;;;;;;;5042297;28;20210;-79
2022/06/03 00:33:49;;;;;;;8.20;7.50;;;;;;;;;;5043791;28;20218;-76
2022/06/03 00:36:35;;;;;;;8.83;8.00;;;;;;;;;;5043432;28;20356;-77
2022/06/03 00:39:02;;;;;;;8.57;7.87;;;;;;;;;;5039433;28;20837;-79
2022/06/03 00:41:48;;;;;;;8.57;7.73;;;;;;;;;;5057095;28;20285;-77
2022/06/03 00:44:25;;;;;;;9.00;8.10;;;;;;;;;;5041008;28;20314;-77
2022/06/03 00:47:05;;;;;;;9.20;8.40;;;;;;;;;;5036942;28;20233;-77
2022/06/03 00:49:39;;;;;;;9.97;9.03;;;;;;;;;;5052171;28;20309;-76
2022/06/03 00:52:30;;;;;;;9.33;8.03;;;;;;;;;;5029579;28;20214;-76
2022/06/03 00:55:24;;;;;;;10.70;9.67;;;;;;;;;;5036616;28;20260;-75
2022/06/03 00:58:00;;;;;;;9.43;8.63;;;;;;;;;;5023031;28;20198;-77
2022/06/03 01:00:29;;;;;;;9.67;8.77;;;;;;;;;;5034640;28;20218;-78
2022/06/03 01:03:24;;;;;;;9.60;8.77;;;;;;;;;;5034991;28;20253;-75
2022/06/03 01:06:09;;;;;;;9.83;8.93;;;;;;;;;;5039026;28;20253;-77
2022/06/03 01:08:43;;;;;;;9.93;8.93;;;;;;;;;;5034615;28;20742;-78
2022/06/03 01:11:29;;;;;;;10.40;9.50;;;;;;;;;;5027040;28;20720;-76
2022/06/03 01:14:04;;;;;;;9.77;8.87;;;;;;;;;;5028384;28;20324;-78
2022/06/03 01:16:50;;;;;;;9.53;8.70;;;;;;;;;;5029396;28;20301;-77
2022/06/03 01:19:47;;;;;;;9.83;8.93;;;;;;;;;;5026974;28;20206;-75
2022/06/03 01:22:30;;;;;;;10.87;9.87;;;;;;;;;;5026526;28;20293;-78
2022/06/03 01:25:10;;;;;;;9.37;8.50;;;;;;;;;;5031784;28;20313;-76
2022/06/03 01:27:52;;;;;;;11.07;10.00;;;;;;;;;;5035142;28;20237;-74
2022/06/03 01:30:25;;;;;;;9.87;8.87;;;;;;;;;;5031257;28;20245;-78
2022/06/03 01:33:14;;;;;;;9.47;8.47;;;;;;;;;;5024732;28;20727;-75
2022/06/03 01:35:44;;;;;;;9.83;8.83;;;;;;;;;;5029215;28;20284;-76
2022/06/03 01:38:23;;;;;;;10.37;8.20;;;;;;;;;;5022070;28;20298;-78
2022/06/03 01:40:51;;;;;;;8.87;8.10;;;;;;;;;;5035708;28;20217;-76
2022/06/03 01:43:24;;;;;;;9.73;8.70;;;;;;;;;;5037645;28;20289;-78
2022/06/03 01:46:10;;;;;;;10.27;8.60;;;;;;;;;;5036319;28;20213;-77
2022/06/03 01:48:40;;;;;;;9.20;8.40;;;;;;;;;;5026532;28;21019;-76
2022/06/03 01:51:15;;;;;;;10.07;9.17;;;;;;;;;;5031604;28;20291;-76
2022/06/03 01:53:46;;;;;;;9.30;8.50;;;;;;;;;;5030579;28;20544;-77
2022/06/03 01:56:14;;;;;;;9.83;8.83;;;;;;;;;;5027232;28;20230;-75
2022/06/03 01:58:50;;;;;;;9.67;8.57;;;;;;;;;;5027544;28;20222;-76
2022/06/03 02:01:44;;;;;;;9.17;8.27;;;;;;;;;;5037335;28;20285;-76
2022/06/03 02:04:11;;;;;;;9.43;8.63;;;;;;;;;;5029325;28;20289;-75
2022/06/03 02:07:08;;;;;;;9.90;8.90;;;;;;;;;;5026394;28;20236;-78
2022/06/03 02:09:54;;;;;;;8.53;7.73;;;;;;;;;;5029639;28;20579;-74
2022/06/03 02:12:21;;;;;;;9.20;8.40;;;;;;;;;;5027788;28;20750;-75
2022/06/03 02:15:11;;;;;;;9.27;8.30;;;;;;;;;;5029848;28;20313;-78
2022/06/03 02:17:57;;;;;;;9.60;8.63;;;;;;;;;;5035813;28;20389;-76
2022/06/03 02:20:30;;;;;;;9.57;8.67;;;;;;;;;;5030516;28;20285;-78
2022/06/03 02:23:16;;;;;;;11.30;9.90;;;;;;;;;;5033654;28;20294;-74
2022/06/03 02:25:53;;;;;;;12.57;10.67;;;;;;;;;;5024797;28;20218;-78
2022/06/03 02:28:36;;;;;;;10.93;9.93;;;;;;;;;;5022961;28;20233;-77
2022/06/03 02:31:29;;;;;;;10.17;9.17;;;;;;;;;;5027313;28;20210;-76
2022/06/03 02:34:06;;;;;;;10.50;9.30;;;;;;;;;;5027464;28;20562;-76
2022/06/03 02:37:00;;;;;;;10.03;9.13;;;;;;;;;;5039057;28;20255;-76
2022/06/03 02:39:45;;;;;;;10.57;9.47;;;;;;;;;;5008130;28;20688;-77
2022/06/03 02:42:25;;;;;;;10.13;9.13;;;;;;;;;;5045508;28;20244;-79
2022/06/03 02:44:52;;;;;;;8.87;8.07;;;;;;;;;;5039839;28;20293;-77
2022/06/03 02:47:42;;;;;;;9.90;8.90;;;;;;;;;;5041667;28;20218;-76
2022/06/03 02:50:09;;;;;;;9.67;8.67;;;;;;;;;;5045056;28;20672;-76
2022/06/03 02:52:42;;;;;;;14.00;11.20;;;;;;;;;;5046331;28;20229;-77
2022/06/03 02:55:13;;;;;;;8.43;7.73;;;;;;;;;;5042596;28;20320;-80
2022/06/03 02:57:59;;;;;;;9.63;8.73;;;;;;;;;;5040935;28;20242;-77
2022/06/03 03:00:29;;;;;;;9.23;8.40;;;;;;;;;;5042744;28;20237;-79
2022/06/03 03:02:56;;;;;;;9.53;8.67;;;;;;;;;;5039459;28;20222;-79
2022/06/03 03:05:31;;;;;;;10.37;9.37;;;;;;;;;;5045290;28;20291;-77
2022/06/03 03:08:04;;;;;;;8.47;7.27;;;;;;;;;;5046190;28;21319;-77
2022/06/03 03:10:43;;;;;;;8.13;7.40;;;;;;;;;;5044720;28;20220;-76
2022/06/03 03:13:19;;;;;;;8.17;7.47;;;;;;;;;;5039908;28;20252;-77
2022/06/03 03:16:04;;;;;;;9.23;8.43;;;;;;;;;;5043202;28;20249;-75
2022/06/03 03:18:52;;;;;;;9.20;8.37;;;;;;;;;;5039102;28;20212;-77
2022/06/03 03:21:25;;;;;;;7.70;6.87;;;;;;;;;;5040396;28;20262;-76
2022/06/03 03:23:52;;;;;;;7.23;6.63;;;;;;;;;;5046705;28;20222;-77
2022/06/03 03:26:27;;;;;;;11.37;10.20;;;;;;;;;;5046109;28;20717;-79
2022/06/03 03:29:01;;;;;;;10.93;9.40;;;;;;;;;;5052943;28;20229;-78
2022/06/03 03:31:34;;;;;;;11.03;10.03;;;;;;;;;;5038104;28;20280;-77
2022/06/03 03:34:19;;;;;;;12.90;11.60;;;;;;;;;;5036668;28;20199;-77
2022/06/03 03:37:05;;;;;;;10.57;9.57;;;;;;;;;;5040889;28;20867;-77
2022/06/03 03:39:58;;;;;;;12.00;10.90;;;;;;;;;;5038969;28;20396;-77
2022/06/03 03:42:45;;;;;;;11.70;10.57;;;;;;;;;;5007268;28;20731;-79
2022/06/03 03:45:12;;;;;;;9.50;8.60;;;;;;;;;;5044968;28;20233;-75
2022/06/03 03:47:55;;;;;;;10.00;8.63;;;;;;;;;;5040944;28;20237;-77
2022/06/03 03:50:41;;;;;;;9.20;8.30;;;;;;;;;;5045232;28;20206;-78
2022/06/03 03:53:20;;;;;;;9.63;8.63;;;;;;;;;;5045649;28;20202;-75
2022/06/03 03:56:06;;;;;;;9.53;8.10;;;;;;;;;;5043875;28;20245;-75
2022/06/03 03:58:34;;;;;;;9.67;8.77;;;;;;;;;;5036540;28;21612;-78
2022/06/03 04:01:17;;;;;;;9.77;8.77;;;;;;;;;;5043391;28;20302;-78
2022/06/03 04:03:56;;;;;;;8.27;7.53;;;;;;;;;;5042176;28;20221;-75
2022/06/03 04:06:44;;;;;;;9.43;8.57;;;;;;;;;;5040577;28;20245;-75
2022/06/03 04:09:20;;;;;;;10.37;9.27;;;;;;;;;;5043919;28;20292;-76
2022/06/03 04:11:53;;;;;;;10.50;9.50;;;;;;;;;;5042484;28;20298;-78
2022/06/03 04:14:24;;;;;;;9.63;8.73;;;;;;;;;;5045713;28;20267;-81
2022/06/03 04:17:10;;;;;;;8.90;7.77;;;;;;;;;;5041821;28;20766;-76
2022/06/03 04:19:55;;;;;;;8.83;7.70;;;;;;;;;;5046872;28;20202;-78
2022/06/03 04:22:42;;;;;;;9.47;8.03;;;;;;;;;;5045546;28;20206;-76
2022/06/03 04:25:12;;;;;;;10.57;7.87;;;;;;;;;;5044043;28;20662;-78
2022/06/03 04:28:07;;;;;;;8.73;7.90;;;;;;;;;;5048872;28;20632;-77
2022/06/03 04:30:48;;;;;;;24.37;17.43;;;;;;;;;;5038151;28;20297;-80
2022/06/03 04:33:34;;;;;;;11.50;10.40;;;;;;;;;;5043103;28;20274;-78
2022/06/03 04:36:21;;;;;;;10.90;9.80;;;;;;;;;;5046185;28;20308;-76
2022/06/03 04:39:00;;;;;;;11.17;10.07;;;;;;;;;;5048429;28;20260;-77
2022/06/03 04:41:57;;;;;;;11.03;9.93;;;;;;;;;;5038279;28;20286;-79
2022/06/03 04:44:42;;;;;;;12.03;10.07;;;;;;;;;;4982440;28;20291;-78
2022/06/03 04:47:37;;;;;;;10.40;9.40;;;;;;;;;;5039982;28;20229;-78
2022/06/03 04:50:29;;;;;;;9.00;8.20;;;;;;;;;;5047799;28;20206;-76
2022/06/03 04:53:15;;;;;;;9.30;8.40;;;;;;;;;;5044631;28;20654;-78
2022/06/03 04:56:19;;;;;;;9.30;8.40;;;;;;;;;;5046992;28;20260;-78
2022/06/03 04:58:58;;;;;;;10.00;9.00;;;;;;;;;;5038697;28;20198;-77
2022/06/03 05:01:44;;;;;;;9.80;8.90;;;;;;;;;;5036270;28;20285;-76
2022/06/03 05:04:30;;;;;;;10.37;9.47;;;;;;;;;;5041984;28;20682;-77
2022/06/03 05:07:07;;;;;;;9.70;8.80;;;;;;;;;;5036852;28;20259;-75
2022/06/03 05:09:52;;;;;;;8.67;7.90;;;;;;;;;;5033275;28;20299;-78
2022/06/03 05:12:32;;;;;;;9.20;8.40;;;;;;;;;;5032771;28;20227;-76
2022/06/03 05:15:02;;;;;;;8.97;8.17;;;;;;;;;;5040076;28;20309;-75
2022/06/03 05:17:29;;;;;;;9.37;8.43;;;;;;;;;;5030641;28;20289;-75
2022/06/03 05:19:59;;;;;;;10.87;8.87;;;;;;;;;;5027311;28;20214;-77
2022/06/03 05:22:27;;;;;;;8.87;8.07;;;;;;;;;;5034580;28;20658;-77
2022/06/03 05:25:12;;;;;;;6.93;6.38;;;;;;;;;;5033743;28;20221;-78
2022/06/03 05:27:59;;;;;;;6.30;5.80;;;;;;;;;;5037617;28;20237;-77
2022/06/03 05:30:32;;;;;;;6.00;5.50;;;;;;;;;;5039299;28;20274;-77
2022/06/03 05:33:22;;;;;;;5.43;5.03;;;;;;;;;;5039143;28;20214;-77
2022/06/03 05:36:08;;;;;;;5.28;4.97;;;;;;;;;;5035194;28;20293;-77
2022/06/03 05:38:40;;;;;;;6.18;5.57;;;;;;;;;;5037170;28;20294;-76
2022/06/03 05:44:40;;;;;;;5.30;4.80;;;;;;;;;;5040986;28;20210;-77
2022/06/03 05:47:13;;;;;;;5.97;4.38;;;;;;;;;;5040971;28;20252;-77
2022/06/03 05:49:59;;;;;;;4.45;4.05;;;;;;;;;;5040891;28;20293;-77
2022/06/03 05:52:47;;;;;;;4.30;4.00;;;;;;;;;;5042626;28;20224;-78
2022/06/03 05:55:22;;;;;;;4.40;4.00;;;;;;;;;;5041961;28;20233;-76
2022/06/03 05:58:02;;;;;;;4.55;4.20;;;;;;;;;;5026326;28;20288;-78
2022/06/03 06:00:48;;;;;;;4.50;4.13;;;;;;;;;;5035815;28;20315;-77
2022/06/03 06:03:21;;;;;;;4.30;3.90;;;;;;;;;;5050869;28;20738;-76
2022/06/03 06:05:52;;;;;;;4.35;4.03;;;;;;;;;;5038615;28;20249;-76
2022/06/03 06:08:28;;;;;;;4.32;3.90;;;;;;;;;;5037985;28;20256;-76
2022/06/03 06:11:03;;;;;;;4.38;3.97;;;;;;;;;;5037019;28;20233;-78
2022/06/03 06:13:43;;;;;;;4.20;3.80;;;;;;;;;;5031255;28;20206;-76
2022/06/03 06:16:21;;;;;;;4.38;4.00;;;;;;;;;;5037890;28;20313;-76
2022/06/03 06:18:49;;;;;;;4.57;4.18;;;;;;;;;;5038684;28;20204;-77
2022/06/03 06:21:38;;;;;;;7.78;4.78;;;;;;;;;;5041100;28;20285;-76
2022/06/03 06:24:24;;;;;;;5.63;4.35;;;;;;;;;;5035708;28;20219;-76
2022/06/03 06:27:03;;;;;;;4.90;4.40;;;;;;;;;;5036568;28;20745;-78
2022/06/03 06:29:49;;;;;;;4.80;4.15;;;;;;;;;;5039358;28;20197;-77
2022/06/03 06:32:35;;;;;;;4.88;4.38;;;;;;;;;;5032847;28;20210;-78
2022/06/03 06:35:22;;;;;;;4.32;4.00;;;;;;;;;;5030350;28;20230;-78
2022/06/03 06:37:49;;;;;;;5.20;4.70;;;;;;;;;;5030274;28;20972;-75
2022/06/03 06:40:24;;;;;;;4.90;4.50;;;;;;;;;;5026929;28;20665;-77
2022/06/03 06:43:10;;;;;;;5.15;4.70;;;;;;;;;;5038292;28;20297;-76
2022/06/03 06:45:50;;;;;;;5.00;4.57;;;;;;;;;;5036027;28;20740;-77
2022/06/03 06:48:33;;;;;;;5.13;4.72;;;;;;;;;;5034488;28;20689;-76
2022/06/03 06:51:00;;;;;;;5.90;4.60;;;;;;;;;;5029975;28;20294;-78
2022/06/03 06:53:36;;;;;;;5.30;4.80;;;;;;;;;;5030046;28;20293;-77
2022/06/03 06:56:03;;;;;;;5.53;5.00;;;;;;;;;;5025484;28;20348;-77
2022/06/03 06:58:33;;;;;;;5.40;4.90;;;;;;;;;;5027058;28;20843;-76
2022/06/03 07:01:02;;;;;;;6.20;5.25;;;;;;;;;;5026156;28;20321;-76
2022/06/03 07:03:49;;;;;;;7.07;5.60;;;;;;;;;;5015849;28;20308;-78
2022/06/03 07:06:21;;;;;;;6.63;5.93;;;;;;;;;;5019254;28;20236;-79
2022/06/03 07:08:52;;;;;;;6.43;5.28;;;;;;;;;;5013629;28;20308;-77
2022/06/03 07:11:24;;;;;;;6.88;5.30;;;;;;;;;;5017046;28;20211;-76
2022/06/03 07:13:53;;;;;;;5.55;4.93;;;;;;;;;;5001803;28;20336;-77
2022/06/03 07:22:14;;;;;;;6.32;5.82;;;;;;;;;;5027397;28;20376;-77
2022/06/03 07:24:41;;;;;;;5.45;5.03;;;;;;;;;;5029476;28;20234;-78
2022/06/03 07:27:23;;;;;;;5.55;5.10;;;;;;;;;;5022002;28;20458;-75
2022/06/03 07:29:56;;;;;;;5.32;4.70;;;;;;;;;;5042187;28;20273;-75
2022/06/03 07:32:26;;;;;;;5.50;5.00;;;;;;;;;;5038781;28;20293;-77
2022/06/03 07:34:57;;;;;;;4.70;4.30;;;;;;;;;;5028907;28;20237;-78
2022/06/03 07:37:30;;;;;;;5.32;4.43;;;;;;;;;;5041648;28;20233;-77
2022/06/03 07:40:07;;;;;;;5.15;4.65;;;;;;;;;;5038653;28;20309;-76
2022/06/03 07:42:58;;;;;;;4.90;4.57;;;;;;;;;;5041344;28;20330;-78
2022/06/03 07:45:28;;;;;;;6.05;4.30;;;;;;;;;;5033495;28;20292;-75
2022/06/03 07:48:03;;;;;;;4.85;4.00;;;;;;;;;;5042808;28;20208;-75
2022/06/03 07:50:33;;;;;;;4.43;3.88;;;;;;;;;;5048700;28;20289;-76
2022/06/03 07:53:05;;;;;;;5.25;4.43;;;;;;;;;;5045911;28;20308;-77
2022/06/03 07:55:35;;;;;;;4.55;4.10;;;;;;;;;;5046998;28;20845;-77
2022/06/03 07:58:04;;;;;;;4.95;4.10;;;;;;;;;;5045885;28;20621;-76
2022/06/03 08:00:36;;;;;;;4.03;3.72;;;;;;;;;;5046934;28;20202;-75
2022/06/03 08:03:05;;;;;;;4.03;3.60;;;;;;;;;;5038784;28;20225;-76
2022/06/03 08:05:33;;;;;;;3.80;3.55;;;;;;;;;;5047530;28;20321;-76
2022/06/03 08:10:57;;;;;;;3.60;3.40;;;;;;;;;;5041746;28;20615;-75
2022/06/03 08:13:39;;;;;;;3.83;3.40;;;;;;;;;;5048041;28;20292;-78
2022/06/03 08:16:12;;;;;;;3.78;3.47;;;;;;;;;;5044964;28;20330;-76
2022/06/03 08:18:42;;;;;;;6.80;3.65;;;;;;;;;;5047556;28;20260;-76
2022/06/03 08:21:27;;;;;;;4.60;3.40;;;;;;;;;;5052555;28;20206;-75
2022/06/03 08:23:55;;;;;;;4.15;3.75;;;;;;;;;;5043256;28;20236;-77
2022/06/03 08:26:26;;;;;;;3.65;3.30;;;;;;;;;;5043238;28;20815;-78
2022/06/03 08:29:01;;;;;;;3.92;3.25;;;;;;;;;;5032469;28;20547;-76
2022/06/03 08:31:31;;;;;;;3.50;3.30;;;;;;;;;;5047958;28;20209;-78
2022/06/03 08:34:00;;;;;;;5.82;3.35;;;;;;;;;;5041823;28;20206;-77
2022/06/03 08:36:32;;;;;;;3.50;3.20;;;;;;;;;;5045477;28;20318;-78
2022/06/03 08:39:02;;;;;;;4.18;3.38;;;;;;;;;;5037767;28;20300;-76
2022/06/03 08:41:35;;;;;;;4.15;3.75;;;;;;;;;;5036545;28;20263;-76
2022/06/03 08:44:14;;;;;;;4.07;3.38;;;;;;;;;;5039334;28;21428;-77
2022/06/03 08:46:45;;;;;;;4.50;3.10;;;;;;;;;;5031942;28;21704;-77
2022/06/03 08:49:17;;;;;;;3.55;3.25;;;;;;;;;;5042677;28;20206;-76
2022/06/03 08:51:50;;;;;;;3.72;3.53;;;;;;;;;;5039548;28;20214;-76
2022/06/03 08:54:27;;;;;;;3.95;3.55;;;;;;;;;;5037653;28;20207;-76
2022/06/03 08:56:56;;;;;;;3.60;3.30;;;;;;;;;;5039115;28;20236;-77
2022/06/03 08:59:30;;;;;;;4.07;3.78;;;;;;;;;;5044317;28;20248;-77
2022/06/03 09:02:00;;;;;;;3.65;3.33;;;;;;;;;;5038325;28;20233;-78
2022/06/03 09:04:40;;;;;;;4.20;3.80;;;;;;;;;;5038573;28;20216;-76
2022/06/03 09:07:15;;;;;;;3.60;3.30;;;;;;;;;;5046385;28;20232;-76
2022/06/03 09:09:51;;;;;;;3.97;3.63;;;;;;;;;;5041527;28;20201;-80
2022/06/03 09:12:19;;;;;;;3.75;3.45;;;;;;;;;;5037223;28;20519;-76
2022/06/03 09:14:47;;;;;;;3.90;3.58;;;;;;;;;;5032060;28;20313;-79
2022/06/03 09:17:33;;;;;;;4.20;3.40;;;;;;;;;;5036448;28;20309;-76
2022/06/03 09:20:03;;;;;;;4.80;3.25;;;;;;;;;;5040078;28;20203;-79
2022/06/03 09:22:31;;;;;;;7.90;5.22;;;;;;;;;;5037059;28;20293;-76
2022/06/03 09:25:00;;;;;;;4.45;4.03;;;;;;;;;;5039098;28;20215;-79
2022/06/03 09:27:29;;;;;;;3.70;3.38;;;;;;;;;;5035283;28;20699;-78
2022/06/03 09:29:57;;;;;;;3.50;3.05;;;;;;;;;;5027779;28;20316;-77
2022/06/03 09:32:26;;;;;;;4.47;3.30;;;;;;;;;;5022313;28;20289;-76
2022/06/03 09:34:55;;;;;;;3.70;3.40;;;;;;;;;;5030507;28;20290;-79
2022/06/03 09:37:25;;;;;;;3.83;3.40;;;;;;;;;;5028508;28;20376;-79
2022/06/03 09:39:53;;;;;;;3.60;3.30;;;;;;;;;;5037002;28;20569;-80
2022/06/03 09:42:21;;;;;;;3.87;2.80;;;;;;;;;;5030945;28;20284;-78
2022/06/03 09:44:50;;;;;;;3.13;2.92;;;;;;;;;;5038890;28;20249;-78
2022/06/03 09:47:20;;;;;;;3.05;2.40;;;;;;;;;;5031776;28;20210;-76
2022/06/03 09:49:50;;;;;;;3.28;2.88;;;;;;;;;;5033039;28;20207;-76
2022/06/03 09:52:20;;;;;;;3.35;2.63;;;;;;;;;;5034718;28;20199;-77
2022/06/03 09:54:47;;;;;;;4.85;2.90;;;;;;;;;;5029875;28;20257;-77
2022/06/03 09:57:28;;;;;;;4.32;3.20;;;;;;;;;;5028759;28;20446;-76
2022/06/03 09:59:57;;;;;;;3.25;3.05;;;;;;;;;;5036654;28;20253;-78
2022/06/03 10:02:25;;;;;;;3.45;3.17;;;;;;;;;;5034532;28;20276;-75
2022/06/03 10:04:53;;;;;;;3.30;2.67;;;;;;;;;;5032687;28;20277;-77
2022/06/03 10:07:25;;;;;;;2.88;2.65;;;;;;;;;;5025931;28;20938;-78
2022/06/03 10:12:49;;;;;;;3.63;3.13;;;;;;;;;;5015587;28;20206;-75
2022/06/03 10:18:20;;;;;;;4.07;2.40;;;;;;;;;;5021235;28;20472;-79
2022/06/03 10:20:52;;;;;;;4.22;2.72;;;;;;;;;;5016016;28;20953;-76
2022/06/03 10:23:21;;;;;;;2.90;2.28;;;;;;;;;;5018469;28;20273;-74
2022/06/03 10:26:08;;;;;;;2.10;2.00;;;;;;;;;;5022056;28;20602;-75
2022/06/03 10:28:36;;;;;;;2.90;2.55;;;;;;;;;;5021022;28;20233;-78
2022/06/03 10:31:08;;;;;;;3.33;3.03;;;;;;;;;;5020679;28;20211;-76
2022/06/03 10:33:35;;;;;;;2.55;2.45;;;;;;;;;;5022470;28;20653;-80
2022/06/03 10:36:04;;;;;;;2.80;2.60;;;;;;;;;;5034496;28;20234;-76
2022/06/03 10:38:33;;;;;;;2.78;2.58;;;;;;;;;;5037145;28;20652;-79
2022/06/03 10:41:09;;;;;;;2.58;2.38;;;;;;;;;;5039324;28;20266;-78
2022/06/03 10:43:37;;;;;;;3.15;2.80;;;;;;;;;;5043636;28;21482;-78
2022/06/03 10:46:15;;;;;;;2.60;2.40;;;;;;;;;;5040252;28;20601;-77
2022/06/03 10:48:43;;;;;;;2.60;2.40;;;;;;;;;;5028874;28;21407;-77
2022/06/03 10:51:16;;;;;;;3.45;2.67;;;;;;;;;;5034018;28;20595;-77
2022/06/03 11:02:15;;;;;;;2.50;2.30;;;;;;;;;;5036489;28;20434;-81
2022/06/03 11:04:43;;;;;;;2.40;2.20;;;;;;;;;;5029275;28;20268;-77
2022/06/03 11:07:25;;;;;;;3.25;2.17;;;;;;;;;;5036022;28;20702;-75
2022/06/03 11:09:56;;;;;;;3.17;2.00;;;;;;;;;;5036782;28;20206;-76
2022/06/03 11:12:24;;;;;;;2.30;2.10;;;;;;;;;;5035487;28;20222;-78
2022/06/03 11:14:51;;;;;;;1.90;1.80;;;;;;;;;;5035683;28;20202;-76
2022/06/03 11:17:20;;;;;;;2.55;1.98;;;;;;;;;;5039127;28;20313;-78
2022/06/03 11:19:49;;;;;;;2.38;2.10;;;;;;;;;;5050728;28;20290;-79
2022/06/03 11:22:19;;;;;;;2.15;2.05;;;;;;;;;;5029921;28;20305;-76
2022/06/03 11:24:50;;;;;;;2.13;2.03;;;;;;;;;;5034159;28;20401;-79
2022/06/03 11:27:19;;;;;;;2.30;2.15;;;;;;;;;;5051100;28;20590;-80
2022/06/03 11:29:48;;;;;;;2.17;1.83;;;;;;;;;;5040166;28;20237;-79
2022/06/03 11:32:17;;;;;;;2.00;1.85;;;;;;;;;;5041387;28;20233;-77
2022/06/03 11:34:48;;;;;;;2.60;2.17;;;;;;;;;;5034187;28;20206;-77
2022/06/03 11:37:24;;;;;;;2.10;1.90;;;;;;;;;;5031459;28;20356;-77
2022/06/03 11:39:51;;;;;;;2.53;2.22;;;;;;;;;;5041579;28;20222;-76
2022/06/03 11:42:31;;;;;;;3.30;2.03;;;;;;;;;;5040456;28;20238;-78
2022/06/03 11:45:08;;;;;;;2.45;2.25;;;;;;;;;;5040284;28;21551;-76
2022/06/03 11:47:38;;;;;;;3.00;2.70;;;;;;;;;;5029152;28;20275;-77
2022/06/03 11:50:08;;;;;;;2.40;2.17;;;;;;;;;;5033940;28;20649;-76
2022/06/03 11:52:35;;;;;;;2.13;2.03;;;;;;;;;;5033812;28;20750;-78
2022/06/03 11:55:03;;;;;;;2.30;2.10;;;;;;;;;;5041789;28;20269;-78
2022/06/03 11:57:31;;;;;;;2.50;2.30;;;;;;;;;;5042271;28;20218;-76
2022/06/03 12:00:06;;;;;;;2.58;2.35;;;;;;;;;;5036732;28;20209;-76
2022/06/03 12:02:39;;;;;;;2.97;2.47;;;;;;;;;;5037467;28;20714;-75
2022/06/03 12:05:12;;;;;;;2.38;2.28;;;;;;;;;;5032433;28;20207;-77
2022/06/03 12:07:45;;;;;;;3.40;2.72;;;;;;;;;;5038248;28;20198;-76
2022/06/03 12:10:13;;;;;;;3.00;2.80;;;;;;;;;;5035722;28;20303;-78
2022/06/03 12:15:31;;;;;;;4.20;3.90;;;;;;;;;;5031774;28;20313;-77
2022/06/03 12:18:11;;;;;;;3.90;3.50;;;;;;;;;;5026717;28;20389;-76
2022/06/03 12:20:48;;;;;;;4.88;4.38;;;;;;;;;;5029989;28;20218;-75
2022/06/03 12:23:15;;;;;;;6.13;4.82;;;;;;;;;;5043046;28;20301;-77
2022/06/03 12:25:53;;;;;;;4.72;4.32;;;;;;;;;;5035885;28;20228;-78
2022/06/03 12:28:23;;;;;;;6.43;4.60;;;;;;;;;;5033405;28;20213;-74
2022/06/03 12:30:52;;;;;;;4.68;4.28;;;;;;;;;;5034654;28;20215;-76
2022/06/03 12:33:20;;;;;;;5.78;4.75;;;;;;;;;;5031770;28;20212;-76
2022/06/03 12:35:56;;;;;;;5.00;4.53;;;;;;;;;;5028150;28;20664;-76
2022/06/03 12:38:33;;;;;;;6.05;4.72;;;;;;;;;;5030051;28;20226;-77
2022/06/03 12:41:04;;;;;;;5.28;4.78;;;;;;;;;;5038804;28;20293;-77
2022/06/03 12:43:47;;;;;;;5.50;4.90;;;;;;;;;;5034475;28;20234;-79
2022/06/03 12:46:33;;;;;;;5.22;4.70;;;;;;;;;;5033342;28;20588;-75
2022/06/03 12:49:00;;;;;;;5.88;5.38;;;;;;;;;;5025311;28;20299;-76
2022/06/03 12:51:29;;;;;;;6.03;5.10;;;;;;;;;;5024572;28;20298;-76
2022/06/03 12:54:03;;;;;;;6.00;5.40;;;;;;;;;;5031264;28;20780;-77
2022/06/03 12:56:42;;;;;;;6.45;5.85;;;;;;;;;;5028759;28;20403;-77
2022/06/03 12:59:20;;;;;;;7.32;5.60;;;;;;;;;;5026140;28;20210;-75
2022/06/03 13:01:59;;;;;;;6.97;6.20;;;;;;;;;;5031078;28;20284;-78
2022/06/03 13:04:37;;;;;;;8.98;6.35;;;;;;;;;;5038106;28;20225;-77
2022/06/03 13:07:23;;;;;;;8.82;6.45;;;;;;;;;;5032018;28;20229;-77
2022/06/03 13:10:03;;;;;;;9.02;7.07;;;;;;;;;;5038580;28;20288;-75
2022/06/03 13:12:33;;;;;;;8.05;7.00;;;;;;;;;;5029410;28;20607;-78
2022/06/03 13:15:19;;;;;;;9.00;7.40;;;;;;;;;;5031147;28;20239;-76
2022/06/03 13:17:59;;;;;;;7.35;6.72;;;;;;;;;;5032160;28;20322;-75
2022/06/03 13:20:36;;;;;;;7.47;6.78;;;;;;;;;;5033335;28;20206;-75
2022/06/03 13:23:23;;;;;;;6.85;5.82;;;;;;;;;;5037359;28;20774;-76
2022/06/03 13:25:56;;;;;;;8.35;6.70;;;;;;;;;;5026546;28;20317;-74
2022/06/03 13:28:27;;;;;;;8.57;6.50;;;;;;;;;;5019647;28;20758;-75
2022/06/03 13:31:13;;;;;;;9.27;6.93;;;;;;;;;;5024292;28;20209;-75
2022/06/03 13:33:59;;;;;;;7.00;6.30;;;;;;;;;;5028808;28;20221;-75
2022/06/03 13:36:31;;;;;;;9.18;6.90;;;;;;;;;;5027485;28;20702;-77
2022/06/03 13:38:58;;;;;;;7.43;6.72;;;;;;;;;;5028658;28;20214;-75
2022/06/03 13:44:49;;;;;;;11.05;9.95;;;;;;;;;;5011632;28;20281;-76
2022/06/03 13:47:24;;;;;;;8.48;7.78;;;;;;;;;;5019288;28;20242;-75
2022/06/03 13:49:57;;;;;;;8.18;7.38;;;;;;;;;;5013399;28;20213;-75
2022/06/03 13:52:25;;;;;;;8.82;8.13;;;;;;;;;;5008122;28;20632;-75
2022/06/03 13:54:55;;;;;;;8.23;7.38;;;;;;;;;;5017855;28;20267;-75
2022/06/03 13:57:28;;;;;;;11.27;8.55;;;;;;;;;;5013460;28;20252;-74
2022/06/03 14:00:09;;;;;;;12.90;9.13;;;;;;;;;;5022712;28;20628;-77
2022/06/03 14:02:37;;;;;;;9.30;8.30;;;;;;;;;;5018453;28;20879;-77
2022/06/03 14:05:07;;;;;;;8.98;8.15;;;;;;;;;;5024676;28;20208;-74
2022/06/03 14:07:37;;;;;;;11.23;10.13;;;;;;;;;;5027607;28;20345;-74
2022/06/03 14:10:18;;;;;;;9.60;8.70;;;;;;;;;;5011240;28;20273;-74
2022/06/03 14:13:02;;;;;;;9.07;8.27;;;;;;;;;;5004124;28;20301;-75
2022/06/03 14:15:36;;;;;;;8.88;7.88;;;;;;;;;;5015371;28;20229;-74
2022/06/03 14:18:04;;;;;;;9.05;8.32;;;;;;;;;;5011282;28;20229;-74
2022/06/03 14:20:35;;;;;;;9.40;8.55;;;;;;;;;;5015628;28;20580;-75
2022/06/03 14:23:18;;;;;;;9.57;8.77;;;;;;;;;;5013744;28;20593;-75
2022/06/03 14:26:06;;;;;;;8.43;7.72;;;;;;;;;;5014045;28;20234;-75
2022/06/03 14:28:36;;;;;;;6.82;5.43;;;;;;;;;;5014325;28;20264;-76
2022/06/03 14:31:11;;;;;;;5.22;4.68;;;;;;;;;;5013640;28;20217;-76
2022/06/03 14:33:43;;;;;;;5.30;4.32;;;;;;;;;;5019350;28;20208;-75
2022/06/03 14:36:12;;;;;;;4.15;3.13;;;;;;;;;;5016981;28;20222;-74
2022/06/03 14:38:45;;;;;;;3.67;3.30;;;;;;;;;;5022721;28;21162;-75
2022/06/03 14:41:14;;;;;;;3.47;3.05;;;;;;;;;;5018324;28;21039;-77
2022/06/03 14:43:41;;;;;;;4.95;2.90;;;;;;;;;;5021610;28;20210;-76
2022/06/03 14:46:14;;;;;;;5.57;3.50;;;;;;;;;;5013750;28;20218;-75
2022/06/03 14:48:46;;;;;;;5.53;3.65;;;;;;;;;;5015588;28;20206;-75
2022/06/03 14:51:32;;;;;;;5.55;4.18;;;;;;;;;;5017372;28;20210;-75
2022/06/03 14:54:10;;;;;;;8.98;4.43;;;;;;;;;;5013883;28;20301;-77
2022/06/03 14:56:44;;;;;;;4.10;3.70;;;;;;;;;;5024954;28;20221;-77
2022/06/03 14:59:18;;;;;;;4.75;3.85;;;;;;;;;;5028077;28;21239;-77
2022/06/03 15:01:57;;;;;;;5.20;4.40;;;;;;;;;;5032108;28;20208;-77
2022/06/03 15:04:36;;;;;;;5.05;3.83;;;;;;;;;;5011077;28;20237;-75
2022/06/03 15:07:05;;;;;;;4.45;3.80;;;;;;;;;;5019758;28;20309;-78
2022/06/03 15:09:41;;;;;;;4.25;3.85;;;;;;;;;;5012546;28;21643;-75
2022/06/03 15:12:19;;;;;;;4.65;4.13;;;;;;;;;;4995126;28;20288;-77
2022/06/03 15:14:46;;;;;;;4.60;4.20;;;;;;;;;;5002625;28;21405;-76
2022/06/03 15:17:16;;;;;;;6.40;4.30;;;;;;;;;;5002929;28;21121;-77
2022/06/03 15:19:52;;;;;;;5.28;4.78;;;;;;;;;;5009195;28;20206;-76
2022/06/03 15:22:22;;;;;;;5.32;4.63;;;;;;;;;;5007667;28;20288;-75
2022/06/03 15:25:01;;;;;;;4.90;4.50;;;;;;;;;;5006711;28;20248;-75
2022/06/03 15:27:41;;;;;;;4.32;3.92;;;;;;;;;;5015432;28;20212;-78
2022/06/03 15:30:10;;;;;;;4.30;4.00;;;;;;;;;;5012255;28;20214;-75
2022/06/03 15:32:39;;;;;;;4.95;3.85;;;;;;;;;;5015432;28;20203;-76
2022/06/03 15:35:07;;;;;;;4.53;4.13;;;;;;;;;;5017121;28;20738;-77
2022/06/03 15:37:37;;;;;;;4.40;4.00;;;;;;;;;;5020651;28;20228;-77
2022/06/03 15:40:05;;;;;;;3.90;3.60;;;;;;;;;;5029929;28;20263;-77
2022/06/03 15:42:32;;;;;;;4.07;3.45;;;;;;;;;;5032026;28;20677;-76
2022/06/03 15:45:04;;;;;;;3.85;3.28;;;;;;;;;;5028018;28;20210;-75
2022/06/03 15:47:33;;;;;;;3.97;3.55;;;;;;;;;;5023620;28;20245;-75
2022/06/03 15:50:09;;;;;;;3.58;3.25;;;;;;;;;;5029962;28;20278;-74
2022/06/03 15:52:41;;;;;;;3.75;2.88;;;;;;;;;;5031155;28;20661;-77
2022/06/03 15:55:12;;;;;;;3.63;3.17;;;;;;;;;;5029774;28;20242;-77
2022/06/03 15:57:45;;;;;;;4.97;3.70;;;;;;;;;;5025579;28;20723;-76
2022/06/03 16:00:21;;;;;;;3.40;3.13;;;;;;;;;;5026190;28;20275;-77
2022/06/03 16:02:59;;;;;;;3.40;3.10;;;;;;;;;;5029083;28;20199;-76
2022/06/03 16:05:53;;;;;;;4.07;3.50;;;;;;;;;;5027089;28;20226;-77